Flight Track Log - Related Links

Times and Time Zones

All times are in EDT time to prevent confusion due to time zone crossing. See the SWA3937 flight status page for this flight to view local times or setup timezone preferences in your user account.

Time Position Orientation Groundspeed Altitude Reporting Facility
EDT Latitude Longitude Course Direction KTS MPH feet Rate Location/Type
Fri 12:44:27 PM 34.0467 -117.6297 160° South 177 204 2,100  Level Los Angeles Center
Fri 12:44:48 PM 34.0167 -117.6167 160° South 210 242 2,800 2,304 Climbing Southern California TRACON
Fri 12:46:32 PM 33.9372 -117.5433 143° Southeast 235 270 6,900 2,241 Climbing Los Angeles Center
Fri 12:47:34 PM 33.8656 -117.4844 146° Southeast 296 341 9,000 2,081 Climbing Los Angeles Center
Fri 12:48:36 PM 33.8231 -117.3769 115° Southeast 298 343 11,200 2,274 Climbing Los Angeles Center
Fri 12:49:38 PM 33.7883 -117.2617 110° East 371 427 13,700 2,323 Climbing Los Angeles Center
Fri 12:50:40 PM 33.7592 -117.1389 106° East 382 440 16,000 1,935 Climbing Los Angeles Center
Fri 12:51:42 PM 33.7225 -117.0047 108° East 417 480 17,700 2,032 Climbing Los Angeles Center
Fri 12:52:44 PM 33.6978 -116.8431 100° East 442 509 20,200 2,468 Climbing Los Angeles Center
Fri 12:53:46 PM 33.6839 -116.6911 96° East 455 524 22,800 2,021 Climbing Los Angeles Center
Fri 12:55:00 PM 33.6500 -116.5434 90° East  Level FlightAware Approximate
Fri 12:55:51 PM 33.6506 -116.3756 90° East 476 548 26,500  Level Los Angeles Center
Fri 12:56:53 PM 33.6344 -116.2142 97° East 482 555 29,100 2,177 Climbing Los Angeles Center
Fri 12:57:55 PM 33.6256 -116.0547 94° East 475 547 31,000 919 Climbing Los Angeles Center
Fri 12:58:57 PM 33.6211 -115.8681 92° East 466 536 31,000  Level Los Angeles Center
Fri 12:59:59 PM 33.6189 -115.7119 91° East 468 539 31,000  Level Los Angeles Center
Fri 01:01:01 PM 33.6147 -115.5542 92° East 472 543 31,000  Level Los Angeles Center
Fri 01:02:03 PM 33.6103 -115.3953 92° East 475 547 31,000  Level Los Angeles Center
Fri 01:03:06 PM 33.5947 -115.2369 97° East 479 551 31,000  Level Los Angeles Center
Fri 01:04:08 PM 33.5761 -115.0806 98° East 475 547 31,000  Level Los Angeles Center
Fri 01:05:10 PM 33.5558 -114.8900 97° East 481 554 31,000  Level Los Angeles Center
Fri 01:06:12 PM 33.5372 -114.7322 98° East 479 551 31,000  Level Los Angeles Center
Fri 01:06:58 PM 33.5283 -114.6211 95° East 478 550 31,000 -111 Level Albuquerque Center
Fri 01:08:00 PM 33.5083 -114.4633 99° East 479 551 30,800 -1,355 Descending Albuquerque Center
Fri 01:09:02 PM 33.4894 -114.3089 98° East 475 547 28,200 -2,613 Descending Albuquerque Center
Fri 01:10:04 PM 33.4689 -114.1331 98° East 460 529 25,400 -1,548 Descending Albuquerque Center
Fri 01:11:06 PM 33.4458 -113.9914 101° East 448 516 25,000 -192 Descending Albuquerque Center
Fri 01:12:09 PM 33.4161 -113.8500 104° East 443 510 25,000 -48 Level Albuquerque Center
Fri 01:13:11 PM 33.3881 -113.7103 103° East 438 504 24,900 -1,113 Descending Albuquerque Center
Fri 01:14:13 PM 33.3600 -113.5714 104° East 434 499 22,700 -2,129 Descending Albuquerque Center
Fri 01:15:15 PM 33.3333 -113.4383 103° East 422 486 20,500 -2,032 Descending Albuquerque Center
Fri 01:16:17 PM 33.3058 -113.3092 104° East 407 468 18,500 -2,177 Descending Albuquerque Center
Fri 01:17:19 PM 33.2764 -113.1600 103° East 389 448 16,000 -1,935 Descending Albuquerque Center
Fri 01:18:21 PM 33.2742 -113.0369 91° East 375 432 14,500 -1,597 Descending Albuquerque Center
Fri 01:19:23 PM 33.2781 -112.9219 88° East 354 407 12,700 -1,452 Descending Albuquerque Center
Fri 01:20:25 PM 33.2831 -112.8122 87° East 337 388 11,500 -1,258 Descending Albuquerque Center
Fri 01:21:27 PM 33.3172 -112.7192 66° East 311 358 10,100 -919 Descending Albuquerque Center
Fri 01:22:29 PM 33.3492 -112.6358 65° Northeast 287 330 9,600 -677 Descending Albuquerque Center
Fri 01:23:31 PM 33.3844 -112.5464 65° Northeast 261 300 8,700 -871 Descending Albuquerque Center
Fri 01:24:33 PM 33.4108 -112.4756 66° East 235 270 7,800 -919 Descending Albuquerque Center
Fri 01:25:35 PM 33.4297 -112.4033 73° East 229 264 6,800 -864 Descending Albuquerque Center
Fri 01:26:38 PM 33.4289 -112.3283 91° East 226 260 6,000 -968 Descending Albuquerque Center
Fri 01:27:39 PM 33.4289 -112.2567 90° East 217 250 4,800 -1,171 Descending Albuquerque Center
Fri 01:28:41 PM 33.4292 -112.1769 90° East 202 232 3,600 -1,065 Descending Albuquerque Center
Fri 01:29:43 PM 33.4289 -112.1139 90° East 192 221 2,600 -919 Descending Albuquerque Center
Fri 01:30:45 PM 33.4292 -112.0631 90° East 159 183 1,700 -726 Descending Albuquerque Center
Fri 01:31:47 PM 33.4289 -112.0147 90° East 136 157 1,100 -581 Descending Albuquerque Center
Fri 01:33:00 PM 33.4333 -112.0000 301° West  Level FlightAware Approximate

Login

Don't have an account? Register now (free) for customized features, flight alerts, and more!